Time;durP1;ratioP1;P1;durP2;ratioP2;P2;SDS_P1;SDS_P2;PMS_P1;PMS_P2;Temp;Humidity;BMP_temperature;BMP_pressure;BME280_temperature;BME280_humidity;BME280_pressure;Samples;Min_cycle;Max_cycle;Signal;HPM_P1;HPM_P2
2023/03/19 00:01:07;;;;;;;30.15;11.85;;;5.30;88.90;;;;;;6152797;23;20407;-80
2023/03/19 00:03:35;;;;;;;28.30;10.43;;;5.30;88.90;;;;;;6151248;23;20020;-80
2023/03/19 00:06:03;;;;;;;32.22;13.77;;;5.10;89.10;;;;;;6128240;23;20132;-80
2023/03/19 00:08:30;;;;;;;38.20;14.27;;;5.10;89.30;;;;;;6155752;23;20032;-80
2023/03/19 00:10:58;;;;;;;35.75;13.40;;;5.10;89.90;;;;;;6150919;23;20109;-80
2023/03/19 00:13:28;;;;;;;30.98;12.43;;;5.10;89.70;;;;;;6149308;23;20456;-80
2023/03/19 00:15:55;;;;;;;35.65;13.30;;;4.90;89.60;;;;;;6152218;23;20028;-80
2023/03/19 00:18:25;;;;;;;28.63;10.77;;;5.10;89.90;;;;;;6151746;23;20025;-80
2023/03/19 00:20:54;;;;;;;26.52;10.27;;;4.90;89.80;;;;;;6151514;23;20040;-80
2023/03/19 00:23:22;;;;;;;27.83;10.00;;;5.00;89.70;;;;;;6179257;23;20048;-80
2023/03/19 00:25:49;;;;;;;26.17;9.05;;;6.10;90.40;;;;;;6127942;23;20025;-81
2023/03/19 00:28:17;;;;;;;23.23;8.68;;;5.00;90.10;;;;;;6156448;23;20453;-80
2023/03/19 00:30:44;;;;;;;23.75;8.23;;;4.90;90.10;;;;;;6127328;23;20005;-80
2023/03/19 00:33:12;;;;;;;22.73;8.88;;;5.10;90.20;;;;;;6176380;23;20025;-80
2023/03/19 00:35:40;;;;;;;20.42;8.57;;;4.90;90.10;;;;;;6152368;23;20419;-80
2023/03/19 00:38:08;;;;;;;19.08;8.80;;;4.80;90.20;;;;;;6155474;23;20067;-80
2023/03/19 00:40:36;;;;;;;24.65;8.38;;;4.90;90.20;;;;;;6145515;23;20519;-80
2023/03/19 00:43:03;;;;;;;20.05;8.68;;;4.90;90.10;;;;;;6097642;23;20029;-81
2023/03/19 00:45:31;;;;;;;19.83;8.35;;;4.90;90.10;;;;;;6124671;23;20076;-80
2023/03/19 00:47:59;;;;;;;23.27;8.30;;;4.80;90.20;;;;;;6122802;23;20022;-80
2023/03/19 00:50:26;;;;;;;20.77;8.00;;;4.60;90.20;;;;;;6101604;23;20100;-80
2023/03/19 00:52:54;;;;;;;22.67;8.65;;;4.80;90.30;;;;;;6124027;23;20037;-80
2023/03/19 00:55:24;;;;;;;21.60;8.32;;;4.60;90.20;;;;;;6148831;23;20022;-80
2023/03/19 00:57:58;;;;;;;17.17;7.43;;;4.70;90.20;;;;;;6101831;23;20544;-80
2023/03/19 01:00:26;;;;;;;14.90;6.75;;;4.70;90.40;;;;;;6099063;23;20022;-80
2023/03/19 01:02:53;;;;;;;18.45;8.25;;;4.60;90.30;;;;;;6122912;23;20026;-80
2023/03/19 01:05:21;;;;;;;30.00;10.68;;;4.70;90.20;;;;;;6123903;23;20025;-80
2023/03/19 01:07:49;;;;;;;36.53;13.80;;;4.70;90.30;;;;;;6126135;23;20105;-80
2023/03/19 01:10:21;;;;;;;26.85;10.18;;;4.50;90.20;;;;;;6102765;23;20528;-80
2023/03/19 01:12:49;;;;;;;25.45;9.93;;;4.60;90.30;;;;;;6150616;23;20454;-81
2023/03/19 01:15:18;;;;;;;20.02;7.53;;;4.60;90.40;;;;;;6130028;23;20374;-81
2023/03/19 01:17:46;;;;;;;21.83;7.93;;;4.70;90.50;;;;;;6134429;23;20005;-81
2023/03/19 01:20:17;;;;;;;21.65;7.93;;;4.50;90.60;;;;;;6180944;23;20032;-80
2023/03/19 01:22:45;;;;;;;21.83;7.72;;;4.50;90.70;;;;;;6156934;23;20029;-80
2023/03/19 01:25:13;;;;;;;17.58;7.55;;;4.20;90.40;;;;;;6154900;23;20079;-80
2023/03/19 01:27:51;;;;;;;17.40;7.43;;;4.20;90.60;;;;;;6160097;23;20072;-80
2023/03/19 01:30:19;;;;;;;22.58;8.35;;;4.50;90.50;;;;;;6131807;23;20076;-80
2023/03/19 01:33:13;;;;;;;19.65;7.45;;;4.40;91.00;;;;;;6160682;23;20023;-80
2023/03/19 01:36:03;;;;;;;22.98;8.82;;;4.00;90.60;;;;;;6164247;23;20412;-80
2023/03/19 01:38:54;;;;;;;18.85;7.95;;;4.30;90.70;;;;;;6143855;23;20251;-80
2023/03/19 01:41:23;;;;;;;16.17;6.97;;;4.30;90.90;;;;;;6135802;23;20067;-80
2023/03/19 01:44:00;;;;;;;24.42;7.45;;;4.60;91.00;;;;;;6136884;23;20110;-80
2023/03/19 01:46:38;;;;;;;17.55;7.25;;;4.20;91.20;;;;;;6135077;23;20094;-80
2023/03/19 01:49:26;;;;;;;22.45;8.00;;;4.00;90.90;;;;;;6170428;23;20044;-80
2023/03/19 01:52:12;;;;;;;25.55;9.80;;;4.20;91.00;;;;;;6156279;23;20103;-80
2023/03/19 01:55:18;;;;;;;25.48;10.02;;;3.80;91.00;;;;;;6092810;23;20517;-80
2023/03/19 01:58:07;;;;;;;23.60;9.52;;;4.20;91.20;;;;;;6093328;23;20045;-80
2023/03/19 02:00:57;;;;;;;24.77;9.43;;;3.80;91.00;;;;;;6096309;23;20029;-80
2023/03/19 02:03:26;;;;;;;23.67;9.15;;;4.00;91.10;;;;;;6131507;23;20195;-80
2023/03/19 02:06:05;;;;;;;24.08;9.18;;;4.20;91.40;;;;;;6158591;23;20540;-80
2023/03/19 02:08:34;;;;;;;26.92;9.80;;;4.00;91.40;;;;;;6157350;23;20021;-80
2023/03/19 02:11:02;;;;;;;23.75;9.20;;;3.90;91.40;;;;;;6156947;23;20052;-80
2023/03/19 02:13:29;;;;;;;23.15;8.85;;;4.00;91.50;;;;;;6156663;23;20048;-80
2023/03/19 02:15:57;;;;;;;27.05;9.48;;;4.00;91.70;;;;;;6135907;23;20029;-80
2023/03/19 02:18:27;;;;;;;18.25;7.07;;;3.80;91.50;;;;;;6155658;23;20085;-80
2023/03/19 02:21:21;;;;;;;19.92;7.63;;;3.80;91.50;;;;;;6154734;23;20028;-80
2023/03/19 02:24:05;;;;;;;17.98;6.80;;;4.00;91.50;;;;;;6150191;23;20057;-80
2023/03/19 02:26:50;;;;;;;20.27;6.95;;;4.00;91.60;;;;;;6154798;23;20306;-80
2023/03/19 02:29:17;;;;;;;14.73;6.47;;;3.80;91.80;;;;;;6131010;23;20020;-80
2023/03/19 02:31:46;;;;;;;13.63;6.00;;;3.90;91.80;;;;;;6156841;23;20021;-80
2023/03/19 02:34:20;;;;;;;18.65;7.32;;;4.10;91.90;;;;;;6156819;23;20484;-80
2023/03/19 02:36:56;;;;;;;17.70;6.95;;;3.40;91.70;;;;;;6179483;23;20464;-80
2023/03/19 02:39:37;;;;;;;16.63;6.65;;;3.90;92.00;;;;;;6155974;23;20020;-80
2023/03/19 02:42:10;;;;;;;17.45;8.48;;;3.50;92.00;;;;;;6151975;23;20460;-80
2023/03/19 02:44:37;;;;;;;16.08;6.90;;;3.80;92.10;;;;;;6154354;23;20025;-80
2023/03/19 02:47:05;;;;;;;18.73;6.72;;;3.70;92.30;;;;;;6154983;23;20025;-80
2023/03/19 02:49:33;;;;;;;21.85;7.60;;;3.70;92.20;;;;;;6128877;23;20029;-80
2023/03/19 02:52:00;;;;;;;19.52;8.20;;;3.80;92.10;;;;;;6155343;23;20017;-80
2023/03/19 02:54:28;;;;;;;16.75;7.25;;;3.70;92.20;;;;;;6155836;23;20031;-80
2023/03/19 02:56:55;;;;;;;17.15;7.10;;;3.70;92.20;;;;;;6133144;23;20043;-80
2023/03/19 02:59:23;;;;;;;18.80;7.45;;;3.70;92.20;;;;;;6130495;23;20051;-80
2023/03/19 03:01:54;;;;;;;17.45;6.63;;;3.80;92.30;;;;;;6156873;23;20554;-80
2023/03/19 03:04:22;;;;;;;15.48;7.60;;;3.70;92.30;;;;;;6132233;23;20029;-80
2023/03/19 03:06:50;;;;;;;16.75;6.55;;;3.70;92.30;;;;;;6156115;23;20021;-80
2023/03/19 03:09:18;;;;;;;16.05;6.65;;;3.70;92.50;;;;;;6154159;23;20452;-80
2023/03/19 03:11:46;;;;;;;19.08;7.28;;;2.80;92.10;;;;;;6156013;23;20072;-80
2023/03/19 03:14:13;;;;;;;20.42;7.35;;;3.60;92.50;;;;;;6134883;23;20046;-80
2023/03/19 03:16:44;;;;;;;19.55;7.47;;;3.50;92.60;;;;;;6158340;23;20424;-80
2023/03/19 03:19:12;;;;;;;16.45;7.05;;;3.60;92.70;;;;;;6131427;23;20087;-80
2023/03/19 03:21:41;;;;;;;23.13;7.82;;;3.50;92.70;;;;;;6134590;23;20028;-80
2023/03/19 03:24:09;;;;;;;18.55;7.90;;;3.50;92.80;;;;;;6157066;23;20406;-80
2023/03/19 03:26:37;;;;;;;21.88;8.43;;;3.30;92.90;;;;;;6131827;23;20029;-80
2023/03/19 03:29:06;;;;;;;19.73;7.82;;;3.20;92.90;;;;;;6155189;23;20520;-80
2023/03/19 03:31:36;;;;;;;20.35;8.15;;;3.40;92.90;;;;;;6130709;23;20028;-80
2023/03/19 03:34:03;;;;;;;20.42;8.10;;;3.40;93.00;;;;;;6155015;23;20037;-80
2023/03/19 03:36:31;;;;;;;21.52;7.93;;;4.20;93.50;;;;;;6131933;23;20032;-81
2023/03/19 03:39:03;;;;;;;22.52;7.85;;;3.30;93.20;;;;;;6161132;23;20096;-81
2023/03/19 03:41:30;;;;;;;21.40;8.00;;;3.30;93.20;;;;;;6131828;23;20356;-81
2023/03/19 03:44:00;;;;;;;18.73;8.07;;;3.30;93.40;;;;;;6180047;23;20028;-80
2023/03/19 03:46:38;;;;;;;17.67;7.60;;;3.30;93.50;;;;;;6131461;23;20021;-80
2023/03/19 03:49:06;;;;;;;20.88;7.90;;;3.40;93.60;;;;;;6155782;23;20028;-80
2023/03/19 03:51:33;;;;;;;18.33;8.00;;;3.30;93.50;;;;;;6156781;23;20055;-80
2023/03/19 03:54:01;;;;;;;19.45;7.57;;;3.10;93.30;;;;;;6184284;23;20040;-81
2023/03/19 03:56:30;;;;;;;16.48;6.80;;;2.60;93.10;;;;;;6133498;23;20361;-80
2023/03/19 03:58:57;;;;;;;19.33;7.07;;;3.30;93.30;;;;;;6158668;23;20021;-80
2023/03/19 04:01:27;;;;;;;20.20;8.13;;;3.30;93.50;;;;;;6134107;23;20044;-80
2023/03/19 04:03:58;;;;;;;;;;;3.30;93.50;;;;;;6157036;23;20456;-80
2023/03/19 04:06:28;;;;;;;18.33;6.80;;;3.00;93.40;;;;;;6185345;23;19968;-80
2023/03/19 04:09:10;;;;;;;18.48;6.82;;;3.20;93.40;;;;;;6165294;23;20100;-80
2023/03/19 04:11:40;;;;;;;19.33;7.07;;;3.20;93.50;;;;;;6138205;23;20045;-80
2023/03/19 04:14:07;;;;;;;20.80;7.38;;;3.00;93.40;;;;;;6158899;23;20025;-80
2023/03/19 04:16:37;;;;;;;19.02;6.75;;;3.80;93.50;;;;;;6134192;23;20449;-80
2023/03/19 04:19:06;;;;;;;17.15;7.88;;;3.20;93.40;;;;;;6181814;23;20059;-80
2023/03/19 04:21:34;;;;;;;15.65;7.35;;;3.10;93.60;;;;;;6133361;23;20370;-80
2023/03/19 04:24:10;;;;;;;15.85;7.35;;;3.10;93.60;;;;;;6158546;23;20021;-80
2023/03/19 04:26:38;;;;;;;19.85;8.65;;;3.20;93.60;;;;;;6159873;23;20064;-80
2023/03/19 04:29:09;;;;;;;14.20;6.43;;;3.10;93.70;;;;;;6161288;23;20025;-80
2023/03/19 04:31:37;;;;;;;20.40;8.32;;;2.80;93.40;;;;;;6161936;23;20021;-80
2023/03/19 04:34:04;;;;;;;20.52;7.97;;;3.20;93.60;;;;;;6159391;23;20091;-80
2023/03/19 04:36:32;;;;;;;16.98;6.75;;;3.10;93.60;;;;;;6159001;23;20480;-80
2023/03/19 04:39:00;;;;;;;15.40;6.97;;;2.90;93.50;;;;;;6159592;23;20017;-80
2023/03/19 04:41:27;;;;;;;13.65;5.95;;;3.00;93.60;;;;;;6164706;23;20744;-80
2023/03/19 04:44:22;;;;;;;15.23;6.00;;;3.40;93.70;;;;;;6160049;23;20021;-80
2023/03/19 04:46:50;;;;;;;12.10;5.55;;;3.10;93.70;;;;;;6161039;23;20021;-80
2023/03/19 04:49:20;;;;;;;12.82;6.18;;;3.00;93.60;;;;;;6162993;23;20424;-80
2023/03/19 04:51:48;;;;;;;12.88;5.90;;;3.00;93.70;;;;;;6161794;23;20056;-80
2023/03/19 04:54:16;;;;;;;12.43;5.88;;;2.90;93.80;;;;;;6140195;23;20023;-80
2023/03/19 04:56:47;;;;;;;17.35;6.18;;;2.90;93.70;;;;;;6162760;23;20025;-80
2023/03/19 04:59:18;;;;;;;17.17;6.55;;;3.00;93.80;;;;;;6136655;23;20243;-80
2023/03/19 05:01:48;;;;;;;16.35;5.97;;;2.90;93.90;;;;;;6134486;23;20355;-80
2023/03/19 05:04:20;;;;;;;21.90;8.38;;;2.90;93.90;;;;;;6136683;23;20024;-80
2023/03/19 05:06:49;;;;;;;21.73;9.27;;;2.70;94.30;;;;;;6159159;23;20060;-80
2023/03/19 05:09:17;;;;;;;22.77;9.40;;;2.70;94.00;;;;;;6158216;23;20081;-80
2023/03/19 05:11:44;;;;;;;21.80;9.30;;;2.90;94.10;;;;;;6159043;23;20021;-80
2023/03/19 05:14:18;;;;;;;22.17;10.10;;;3.00;94.10;;;;;;6161414;23;20040;-81
2023/03/19 05:17:00;;;;;;;25.65;10.88;;;2.90;94.30;;;;;;6161882;23;20025;-80
2023/03/19 05:19:38;;;;;;;30.17;11.63;;;2.80;94.00;;;;;;6159717;23;20020;-80
2023/03/19 05:22:08;;;;;;;22.50;10.38;;;3.00;94.20;;;;;;6163841;23;20052;-80
2023/03/19 05:24:38;;;;;;;21.05;8.63;;;2.90;94.20;;;;;;6135298;23;20397;-80
2023/03/19 05:27:07;;;;;;;20.73;8.80;;;3.00;94.50;;;;;;6159819;23;20028;-80
2023/03/19 05:30:14;;;;;;;14.40;5.90;;;2.80;94.50;;;;;;6097562;23;20398;-80
2023/03/19 05:33:04;;;;;;;13.43;5.22;;;3.00;94.20;;;;;;6176767;23;20032;-80
2023/03/19 05:35:36;;;;;;;14.75;6.32;;;3.10;94.20;;;;;;6162133;23;20017;-80
2023/03/19 05:38:11;;;;;;;15.23;5.72;;;3.10;94.30;;;;;;6134422;23;20104;-80
2023/03/19 05:40:41;;;;;;;13.57;5.65;;;3.10;94.40;;;;;;6162851;23;20491;-80
2023/03/19 05:43:20;;;;;;;15.70;6.05;;;3.10;94.40;;;;;;6158841;23;20025;-80
2023/03/19 05:45:51;;;;;;;17.02;6.60;;;3.20;94.50;;;;;;6159882;23;20021;-80
2023/03/19 05:48:24;;;;;;;18.30;6.20;;;3.20;94.50;;;;;;6159325;23;20045;-80
2023/03/19 05:50:53;;;;;;;16.23;6.43;;;3.30;94.40;;;;;;6132514;23;20088;-80
2023/03/19 05:53:22;;;;;;;14.13;5.78;;;3.20;94.30;;;;;;6159095;23;20021;-80
2023/03/19 05:56:25;;;;;;;14.25;5.85;;;3.30;94.70;;;;;;6126726;23;20032;-80
2023/03/19 05:59:11;;;;;;;15.75;6.88;;;3.20;94.60;;;;;;6159740;23;20032;-80
2023/03/19 06:01:42;;;;;;;12.90;5.53;;;3.10;94.50;;;;;;6181893;23;20225;-80
2023/03/19 06:04:13;;;;;;;14.73;5.65;;;3.60;94.50;;;;;;6134119;23;20021;-81
2023/03/19 06:06:44;;;;;;;14.43;5.25;;;3.60;94.40;;;;;;6156054;23;20587;-81
2023/03/19 06:09:12;;;;;;;10.25;4.50;;;3.50;94.30;;;;;;6157869;23;20432;-81
2023/03/19 06:11:41;;;;;;;13.65;5.60;;;3.90;94.00;;;;;;6152341;23;20055;-81
2023/03/19 06:14:33;;;;;;;7.75;4.10;;;3.90;93.70;;;;;;6160385;23;20159;-81
2023/03/19 06:17:30;;;;;;;9.98;3.90;;;4.00;93.20;;;;;;6097614;23;20153;-81
2023/03/19 06:20:03;;;;;;;;;;;4.30;93.10;;;;;;6127588;23;20024;-82
2023/03/19 06:22:30;;;;;;;10.93;3.42;;;4.20;92.90;;;;;;6097064;23;19962;-80
2023/03/19 06:24:58;;;;;;;10.05;3.88;;;4.60;92.50;;;;;;6124190;23;20052;-81
2023/03/19 06:27:26;;;;;;;7.97;3.38;;;4.50;92.30;;;;;;6157617;23;20170;-81
2023/03/19 06:30:07;;;;;;;9.30;3.92;;;4.50;92.40;;;;;;6158591;23;20021;-81
2023/03/19 06:32:36;;;;;;;8.35;3.15;;;4.70;91.80;;;;;;6183152;23;20036;-81
2023/03/19 06:35:09;;;;;;;8.20;3.30;;;4.80;91.60;;;;;;6130747;23;20028;-81
2023/03/19 06:37:38;;;;;;;5.32;1.80;;;4.90;91.10;;;;;;6187472;23;20180;-81
2023/03/19 06:40:06;;;;;;;9.23;3.72;;;4.70;90.70;;;;;;6159086;23;20044;-81
2023/03/19 06:42:37;;;;;;;4.13;1.98;;;5.20;90.60;;;;;;6149781;23;20788;-80
2023/03/19 06:45:06;;;;;;;8.32;2.05;;;5.40;90.50;;;;;;6127900;23;20021;-80
2023/03/19 06:47:33;;;;;;;10.45;2.58;;;5.50;90.10;;;;;;6152406;23;20021;-81
2023/03/19 06:50:01;;;;;;;7.32;2.45;;;5.70;89.40;;;;;;6150067;23;20089;-80
2023/03/19 06:52:30;;;;;;;5.63;2.92;;;5.80;88.70;;;;;;6158143;23;20490;-80
2023/03/19 06:54:57;;;;;;;6.75;2.47;;;5.90;87.70;;;;;;6172282;23;20021;-80
2023/03/19 06:57:27;;;;;;;8.50;2.42;;;6.00;88.00;;;;;;6123729;23;20021;-81
2023/03/19 06:59:54;;;;;;;4.95;2.28;;;6.30;86.50;;;;;;6146104;23;20496;-80
2023/03/19 07:02:22;;;;;;;5.60;2.35;;;6.00;86.20;;;;;;6148989;23;20065;-80
2023/03/19 07:04:49;;;;;;;10.60;3.50;;;6.60;85.40;;;;;;6153902;23;20026;-81
2023/03/19 07:07:17;;;;;;;5.10;2.50;;;6.50;84.70;;;;;;6130208;23;20021;-81
2023/03/19 07:09:45;;;;;;;6.88;3.03;;;6.80;84.10;;;;;;6147485;23;20044;-81
2023/03/19 07:12:13;;;;;;;7.07;3.00;;;6.80;83.00;;;;;;6147851;23;20519;-81
2023/03/19 07:14:43;;;;;;;5.97;2.78;;;6.90;82.90;;;;;;6148623;23;20025;-80
2023/03/19 07:17:10;;;;;;;7.90;2.65;;;7.10;82.80;;;;;;6147067;23;20348;-81
2023/03/19 07:19:40;;;;;;;9.00;3.05;;;7.20;82.60;;;;;;6152234;23;20027;-81
2023/03/19 07:22:10;;;;;;;8.25;2.92;;;7.40;80.90;;;;;;6103694;23;20119;-81
2023/03/19 07:24:38;;;;;;;5.63;1.88;;;7.40;79.70;;;;;;6121651;23;20061;-79
2023/03/19 07:27:05;;;;;;;4.05;1.52;;;7.70;79.80;;;;;;6100350;23;20023;-80
2023/03/19 07:29:32;;;;;;;5.05;1.90;;;7.70;79.20;;;;;;6119541;23;20505;-80
2023/03/19 07:32:00;;;;;;;7.25;2.80;;;7.70;78.10;;;;;;6099405;23;20453;-80
2023/03/19 07:34:27;;;;;;;6.82;2.47;;;7.90;77.80;;;;;;6123761;23;20453;-79
2023/03/19 07:36:55;;;;;;;3.97;1.52;;;7.80;76.90;;;;;;6101042;23;20014;-79
2023/03/19 07:39:22;;;;;;;1.95;0.80;;;8.00;76.00;;;;;;6121858;23;20516;-81
2023/03/19 07:41:52;;;;;;;5.40;2.65;;;7.90;75.80;;;;;;6098432;23;20025;-80
2023/03/19 07:44:23;;;;;;;4.40;1.83;;;8.00;76.20;;;;;;6120560;23;20045;-81
2023/03/19 07:46:50;;;;;;;6.75;2.45;;;7.80;75.30;;;;;;6124192;23;20044;-80
2023/03/19 07:49:17;;;;;;;5.00;2.08;;;7.80;76.00;;;;;;6125956;23;20033;-81
2023/03/19 07:51:45;;;;;;;3.22;1.45;;;8.00;75.80;;;;;;6120877;23;20025;-80
2023/03/19 07:54:12;;;;;;;4.65;1.75;;;8.20;75.20;;;;;;6148556;23;20025;-80
2023/03/19 07:56:40;;;;;;;6.15;2.42;;;8.30;74.80;;;;;;6097333;23;20025;-79
2023/03/19 07:59:07;;;;;;;4.95;1.60;;;8.30;74.60;;;;;;6096391;23;20373;-80
2023/03/19 08:01:35;;;;;;;5.45;2.50;;;8.50;74.20;;;;;;6125922;23;20051;-80
2023/03/19 08:04:02;;;;;;;5.50;1.85;;;8.60;73.50;;;;;;6125579;23;20022;-81
2023/03/19 08:06:37;;;;;;;5.22;2.10;;;8.80;73.70;;;;;;6102613;23;20021;-81
2023/03/19 08:09:05;;;;;;;5.35;2.20;;;9.00;72.90;;;;;;6132708;23;20022;-81
2023/03/19 08:11:33;;;;;;;4.55;2.35;;;9.00;72.10;;;;;;6149325;23;20026;-78
2023/03/19 08:14:00;;;;;;;4.90;2.38;;;9.10;72.40;;;;;;6128182;23;20021;-80
2023/03/19 08:16:28;;;;;;;8.93;2.15;;;8.90;71.50;;;;;;6142526;23;20049;-81
2023/03/19 08:18:55;;;;;;;3.63;1.42;;;9.20;71.50;;;;;;6183784;23;20021;-81
2023/03/19 08:21:23;;;;;;;5.50;2.58;;;9.20;70.90;;;;;;6156639;23;20032;-80
2023/03/19 08:23:51;;;;;;;4.72;2.00;;;9.50;71.40;;;;;;6155433;23;20465;-81
2023/03/19 08:26:18;;;;;;;3.53;2.00;;;9.30;70.50;;;;;;6154462;23;20475;-81
2023/03/19 08:28:46;;;;;;;5.03;2.25;;;9.60;70.20;;;;;;6158659;23;20021;-81
2023/03/19 08:31:13;;;;;;;7.40;3.30;;;9.40;69.60;;;;;;6156943;23;20041;-80
2023/03/19 08:33:41;;;;;;;4.90;2.40;;;9.80;70.20;;;;;;6154030;23;20433;-80
2023/03/19 08:36:10;;;;;;;7.57;2.85;;;9.90;69.70;;;;;;6157677;23;20021;-81
2023/03/19 08:38:38;;;;;;;5.25;2.45;;;9.90;69.20;;;;;;6156454;23;20060;-81
2023/03/19 08:41:07;;;;;;;4.75;1.88;;;10.10;68.70;;;;;;6158974;23;20097;-81
2023/03/19 08:43:37;;;;;;;4.88;2.35;;;9.90;68.30;;;;;;6148710;23;20468;-80
2023/03/19 08:46:05;;;;;;;5.68;2.65;;;10.10;68.30;;;;;;6173948;23;20032;-81
2023/03/19 08:48:33;;;;;;;7.30;1.90;;;10.20;68.20;;;;;;6124338;23;20021;-80
2023/03/19 08:51:02;;;;;;;4.97;2.50;;;10.30;67.80;;;;;;6182430;23;20024;-81
2023/03/19 08:53:30;;;;;;;5.97;2.75;;;10.40;66.80;;;;;;6129250;23;20048;-81
2023/03/19 08:56:03;;;;;;;4.25;1.50;;;10.20;66.40;;;;;;6132229;23;20049;-81
2023/03/19 08:58:31;;;;;;;7.20;2.55;;;10.50;67.00;;;;;;6149562;23;20017;-81
2023/03/19 09:01:02;;;;;;;4.40;1.80;;;10.40;67.00;;;;;;6178771;23;20139;-80
2023/03/19 09:03:30;;;;;;;2.47;0.63;;;10.30;66.20;;;;;;6179560;23;20021;-80
2023/03/19 09:06:00;;;;;;;3.50;1.63;;;9.80;64.90;;;;;;6150278;23;20025;-80
2023/03/19 09:08:29;;;;;;;3.47;1.42;;;10.60;64.00;;;;;;6149045;23;20363;-80
2023/03/19 09:10:57;;;;;;;4.50;1.98;;;10.80;63.70;;;;;;6173621;23;20547;-80
2023/03/19 09:13:28;;;;;;;4.82;2.17;;;10.90;63.90;;;;;;6149425;23;20021;-81
2023/03/19 09:15:55;;;;;;;4.22;1.88;;;11.10;63.80;;;;;;6124713;23;20035;-81
2023/03/19 09:18:24;;;;;;;5.43;2.25;;;11.10;64.00;;;;;;6150970;23;20075;-81
2023/03/19 09:20:53;;;;;;;4.38;1.73;;;11.10;63.50;;;;;;6150492;23;20500;-80
2023/03/19 09:23:21;;;;;;;2.83;1.55;;;11.30;64.20;;;;;;6150958;23;20025;-80
2023/03/19 09:25:48;;;;;;;7.07;2.22;;;11.50;62.90;;;;;;6178099;23;20052;-78
2023/03/19 09:28:19;;;;;;;2.72;0.77;;;11.50;62.80;;;;;;6153137;23;20024;-81
2023/03/19 09:30:48;;;;;;;4.60;1.50;;;11.40;62.50;;;;;;6150905;23;20340;-80
2023/03/19 09:33:17;;;;;;;4.93;1.75;;;11.40;61.30;;;;;;6149225;23;20433;-79
2023/03/19 09:35:51;;;;;;;5.28;1.88;;;11.60;62.40;;;;;;6180842;23;20047;-80
2023/03/19 09:38:22;;;;;;;4.65;2.10;;;11.70;62.00;;;;;;6147648;23;20027;-79
2023/03/19 09:41:06;;;;;;;4.65;1.40;;;11.90;62.00;;;;;;6142631;23;20025;-79
2023/03/19 09:43:55;;;;;;;5.85;2.20;;;12.00;62.20;;;;;;6174512;23;20432;-80
2023/03/19 09:46:31;;;;;;;4.30;1.85;;;12.20;61.70;;;;;;6172649;23;20132;-78
2023/03/19 09:49:05;;;;;;;6.28;1.90;;;12.00;61.00;;;;;;6148072;23;20025;-80
2023/03/19 09:51:40;;;;;;;5.13;1.58;;;12.10;60.40;;;;;;6171648;23;20115;-79
2023/03/19 09:54:26;;;;;;;3.58;1.35;;;12.10;61.20;;;;;;6173247;23;20449;-80
2023/03/19 09:56:54;;;;;;;3.67;1.40;;;12.30;60.00;;;;;;6145223;23;20476;-80
2023/03/19 09:59:23;;;;;;;3.70;1.63;;;12.40;60.40;;;;;;6150626;23;20052;-80
2023/03/19 10:02:28;;;;;;;2.67;1.20;;;12.40;59.30;;;;;;6147967;23;20016;-79
2023/03/19 10:05:17;;;;;;;5.03;2.10;;;12.30;60.00;;;;;;6144872;23;20033;-80
2023/03/19 10:08:08;;;;;;;4.50;1.40;;;12.60;59.20;;;;;;6173046;23;20025;-80
2023/03/19 10:10:49;;;;;;;7.40;2.50;;;12.70;58.50;;;;;;6142008;23;20063;-79
2023/03/19 10:13:54;;;;;;;4.40;2.38;;;13.00;58.20;;;;;;6167999;23;20040;-79
2023/03/19 10:16:25;;;;;;;5.07;1.50;;;12.80;59.20;;;;;;6170814;23;20104;-80
2023/03/19 10:18:57;;;;;;;5.07;1.80;;;12.80;59.10;;;;;;6148378;23;20449;-81
2023/03/19 10:21:43;;;;;;;3.88;1.70;;;13.10;58.80;;;;;;6147198;23;20032;-79
2023/03/19 10:24:33;;;;;;;3.53;1.73;;;13.30;58.40;;;;;;6123191;23;20140;-81
2023/03/19 10:27:09;;;;;;;2.55;1.08;;;13.40;58.40;;;;;;6150023;23;20035;-80
2023/03/19 10:29:38;;;;;;;4.88;1.73;;;13.60;58.90;;;;;;6146599;23;20040;-80
2023/03/19 10:32:08;;;;;;;4.45;1.80;;;13.10;58.00;;;;;;6149002;23;20029;-81
2023/03/19 10:34:42;;;;;;;3.95;1.80;;;12.90;58.40;;;;;;6172077;23;20057;-81
2023/03/19 10:37:14;;;;;;;3.65;1.60;;;13.00;57.60;;;;;;6123733;23;20021;-80
2023/03/19 10:39:45;;;;;;;3.90;1.50;;;13.50;58.90;;;;;;6146704;23;20040;-80
2023/03/19 10:42:40;;;;;;;6.72;2.10;;;13.20;57.60;;;;;;6154182;23;20127;-81
2023/03/19 10:45:27;;;;;;;4.20;1.60;;;13.20;58.90;;;;;;6149639;23;20021;-81
2023/03/19 10:47:56;;;;;;;5.40;1.58;;;13.40;58.10;;;;;;6174127;23;20059;-81
2023/03/19 10:50:47;;;;;;;4.53;1.40;;;13.50;58.40;;;;;;6147331;23;20107;-81
2023/03/19 10:53:14;;;;;;;4.57;1.58;;;13.30;57.10;;;;;;6147146;23;20457;-78
2023/03/19 10:55:52;;;;;;;3.92;1.52;;;13.50;57.00;;;;;;6177706;23;20403;-81
2023/03/19 10:58:25;;;;;;;4.03;1.50;;;13.50;57.50;;;;;;6151989;23;20103;-80
2023/03/19 11:00:57;;;;;;;3.08;1.30;;;13.70;57.40;;;;;;6129548;23;20527;-81
2023/03/19 11:03:31;;;;;;;4.15;1.33;;;13.80;56.90;;;;;;6148005;23;20027;-79
2023/03/19 11:06:09;;;;;;;4.57;1.52;;;13.80;56.70;;;;;;6171665;23;20421;-79
2023/03/19 11:08:37;;;;;;;3.03;1.52;;;13.60;56.50;;;;;;6147986;23;20027;-80
2023/03/19 11:11:05;;;;;;;4.82;1.75;;;13.80;56.10;;;;;;6173872;23;20113;-80
2023/03/19 11:13:34;;;;;;;4.05;0.80;;;14.10;55.90;;;;;;6176721;23;20021;-79
2023/03/19 11:16:09;;;;;;;5.15;1.90;;;14.10;55.80;;;;;;6142703;23;20522;-80
2023/03/19 11:18:38;;;;;;;3.05;1.50;;;14.10;55.20;;;;;;6150228;23;20017;-81
2023/03/19 11:21:27;;;;;;;2.92;1.40;;;14.20;55.00;;;;;;6146787;23;20025;-81
2023/03/19 11:24:02;;;;;;;3.85;1.77;;;14.20;54.70;;;;;;6171358;23;20028;-80
2023/03/19 11:26:30;;;;;;;2.58;1.60;;;14.50;54.80;;;;;;6148900;23;20028;-81
2023/03/19 11:29:07;;;;;;;2.90;1.40;;;14.70;55.30;;;;;;6147116;23;20029;-81
2023/03/19 11:31:38;;;;;;;4.03;1.75;;;14.00;53.70;;;;;;6147847;23;20028;-80
2023/03/19 11:34:48;;;;;;;3.53;1.25;;;14.70;55.00;;;;;;6169796;23;20021;-81
2023/03/19 11:37:32;;;;;;;2.25;0.93;;;14.80;54.20;;;;;;6148486;23;20021;-81
2023/03/19 11:40:16;;;;;;;5.50;2.25;;;14.70;54.50;;;;;;6151871;23;20017;-81
2023/03/19 11:43:02;;;;;;;2.70;1.40;;;14.80;55.10;;;;;;6176376;23;20025;-81
2023/03/19 11:46:03;;;;;;;3.88;1.75;;;14.80;55.30;;;;;;6173376;23;20037;-79
2023/03/19 11:48:46;;;;;;;4.25;1.67;;;14.90;53.70;;;;;;6170929;23;20021;-79
2023/03/19 11:51:29;;;;;;;2.92;1.25;;;14.90;53.40;;;;;;6173880;23;20536;-80
2023/03/19 11:54:03;;;;;;;4.32;1.40;;;15.00;54.00;;;;;;6142227;23;20522;-79
2023/03/19 11:56:41;;;;;;;3.35;1.52;;;14.90;53.30;;;;;;6150584;23;20028;-80
2023/03/19 11:59:22;;;;;;;6.80;1.80;;;15.10;54.60;;;;;;6151210;23;20025;-80
2023/03/19 12:02:14;;;;;;;2.58;1.30;;;15.20;54.00;;;;;;6170260;23;20901;-79
2023/03/19 12:04:58;;;;;;;4.63;1.52;;;15.20;53.80;;;;;;6170161;23;20075;-79
2023/03/19 12:07:31;;;;;;;2.35;1.38;;;15.20;52.90;;;;;;6173029;23;20016;-80
2023/03/19 12:10:32;;;;;;;3.58;1.77;;;15.20;54.00;;;;;;6144975;23;20064;-80
2023/03/19 12:13:09;;;;;;;4.32;2.05;;;15.40;53.60;;;;;;6114593;23;20405;-81
2023/03/19 12:16:00;;;;;;;3.03;1.27;;;15.50;52.30;;;;;;6149893;23;20028;-81
2023/03/19 12:18:38;;;;;;;2.63;1.35;;;15.50;53.70;;;;;;6063319;23;20044;-78
2023/03/19 12:21:49;;;;;;;4.07;1.70;;;15.50;52.10;;;;;;6143643;23;20333;-80
2023/03/19 12:24:24;;;;;;;5.50;1.95;;;15.40;51.40;;;;;;6112928;23;20025;-80
2023/03/19 12:27:21;;;;;;;3.83;2.03;;;15.60;53.40;;;;;;6145062;23;20100;-80
2023/03/19 12:30:05;;;;;;;5.32;1.98;;;15.30;52.60;;;;;;6154406;23;20031;-81
2023/03/19 12:32:45;;;;;;;4.70;2.30;;;15.50;52.60;;;;;;6157483;23;20035;-81
2023/03/19 12:35:23;;;;;;;5.68;2.58;;;15.50;52.30;;;;;;6170133;23;20021;-80
2023/03/19 12:37:59;;;;;;;6.72;2.63;;;15.70;53.60;;;;;;6148940;23;20068;-79
2023/03/19 12:40:41;;;;;;;5.18;2.22;;;15.60;53.20;;;;;;6146258;23;20075;-81
2023/03/19 12:43:32;;;;;;;4.47;2.00;;;15.70;53.30;;;;;;6173689;23;20025;-80
2023/03/19 12:46:17;;;;;;;4.68;1.88;;;15.40;53.40;;;;;;6150398;23;20397;-80
2023/03/19 12:48:51;;;;;;;8.20;2.47;;;15.60;53.40;;;;;;6156429;23;20021;-80
2023/03/19 12:51:25;;;;;;;11.07;2.00;;;15.80;53.50;;;;;;6152253;23;20020;-79
2023/03/19 12:54:05;;;;;;;5.10;2.13;;;15.80;53.90;;;;;;6122117;23;20542;-79
2023/03/19 12:56:54;;;;;;;4.32;2.10;;;15.90;53.30;;;;;;6156837;23;20047;-81
2023/03/19 12:59:44;;;;;;;4.53;1.77;;;15.90;52.40;;;;;;6180261;23;20025;-81
2023/03/19 13:02:21;;;;;;;4.47;1.67;;;15.90;52.10;;;;;;6146080;23;20064;-82
2023/03/19 13:15:02;;;;;;;5.45;1.98;;;16.00;52.10;;;;;;6117141;23;20349;-80
2023/03/19 13:26:53;;;;;;;3.80;1.50;;;15.70;51.20;;;;;;6113988;23;20060;-79
2023/03/19 14:15:51;;;;;;;5.22;1.70;;;16.00;52.30;;;;;;6075122;23;20725;31
2023/03/19 14:19:19;;;;;;;;;;;;;;;;;;;;;
2023/03/19 14:29:07;;;;;;;4.78;1.95;;;15.50;52.30;;;;;;6118971;23;20033;-93
2023/03/19 15:56:24;;;;;;;7.40;3.00;;;14.10;55.90;;;;;;6072950;23;20038;31
2023/03/19 15:58:56;;;;;;;6.47;2.60;;;14.00;56.70;;;;;;6029298;23;20053;-81
2023/03/19 16:01:32;;;;;;;7.28;2.80;;;14.10;56.70;;;;;;5998770;23;20451;-81